Orogrande, New Mexico
Current Conditions -  °F | °C
As of 12:56 PM on Wednesday 26 Nov 2014 (Local Time) from KM63 Reporting Station
Clear Clear  
Wind Chill: 60°   Ceiling: Unl
Heat Index: 60°   Visibility: 10mi
Dew Point: 16°   Wind: 12mph
Humidity: 17%   Direction: 230°SW
Pressure: 30.29"   Gusts: 20mph
Location:  32.39°N, 106.09°W
Report Text: KM63 261956Z AUTO 23010G17KT 10SM CLR 16/M09 A3029 RMK AO2 SLP223 T01581091
Loading
Personal Weather Stations






























Interactive Weather Map New forecast layout! Learn more

10-Day Weather Forecast

Advertisements
Track Severe Weather on mobile